Aurora, NE

11:50 PM CDT on March 22, 2017 (GMT -0500)
Aurora Municipal

Weather History for KAUH - October, 2012

Change the Weather History Date:

Saturday, October 6, 2012

  Actual Average Record
Temperature  
Mean Temperature 36 °F -  
Max Temperature 45 °F 68 °F 88 °F (1990)
Min Temperature 27 °F 43 °F 24 °F (2000)
Degree Days  
Heating Degree Days 29    
Moisture  
Dew Point 20 °F    
Average Humidity 52    
Maximum Humidity 86    
Minimum Humidity 32    
Precipitation  
Precipitation 0.00 in - - ()
Sea Level Pressure  
Sea Level Pressure 30.34 in    
Wind  
Wind Speed 7 mph (NW)    
Max Wind Speed 14 mph    
Max Gust Speed 18 mph    
Visibility 10 miles    
Events      
Averages and records for this station are not official NWS values.
T = Trace of Precipitation, MM = Missing Value Source: NWS Daily Summary

Daily Weather History Graph

Daily Weather History Graph

Search for Another Location

Airport or City:

Trip Planner

Search our weather history database for the weather conditions in past years. The results will help you decide how hot, cold, wet, or windy it might be!

Date:

Astronomy

Oct. 06, 2012 Rise Set
Actual Time 7:34 AM CDT 7:04 PM CDT
Civil Twilight 7:06 AM CDT 7:32 PM CDT
Nautical Twilight 6:35 AM CDT 8:03 PM CDT
Astronomical Twilight 6:03 AM CDT 8:35 PM CDT
Moon 11:19 PM CDT (10/6) 1:31 PM CDT (10/6)
Length of Visible Light 12h 25m
Length of Day
11h 30m
Waning Gibbous, 65% of the Moon is Illuminated
Oct 6
Waning Gibbous
Oct 8
Last Quarter
Oct 15
New
Oct 21
First Quarter
Oct 29
Full

Hourly Weather History & Observations

Time (CDT) Temp. Windchill Dew Point Humidity Pressure Visibility Wind Dir Wind Speed Gust Speed Precip Events Conditions
12:15 AM 39.7 °F 34.9 °F 23.0 °F 51% 30.32 in 10.0 mi NNW 6.9 mph - N/A   Overcast
12:35 AM 40.1 °F 36.9 °F 23.0 °F 51% 30.32 in 10.0 mi NNW 4.6 mph - N/A   Overcast
12:55 AM 39.7 °F 35.6 °F 23.2 °F 52% 30.32 in 10.0 mi NNW 5.8 mph - N/A   Overcast
1:15 AM 39.6 °F 34.7 °F 23.0 °F 52% 30.32 in 10.0 mi NNW 6.9 mph - N/A   Overcast
1:35 AM 40.6 °F 36.7 °F 22.3 °F 48% 30.32 in 10.0 mi NNW 5.8 mph - N/A   Overcast
1:55 AM 41.0 °F 35.2 °F 21.9 °F 47% 30.32 in 10.0 mi North 9.2 mph - N/A   Overcast
2:15 AM 40.5 °F 35.1 °F 21.7 °F 47% 30.32 in 10.0 mi North 8.1 mph - N/A   Overcast
2:35 AM 39.9 °F 35.1 °F 21.7 °F 48% 30.32 in 10.0 mi North 6.9 mph - N/A   Overcast
2:55 AM 38.5 °F 33.4 °F 21.6 °F 51% 30.32 in 10.0 mi North 6.9 mph - N/A   Overcast
3:15 AM 36.1 °F 31.4 °F 21.6 °F 56% 30.31 in 10.0 mi North 5.8 mph - N/A   Scattered Clouds
3:35 AM 33.1 °F 26.9 °F 21.4 °F 62% 30.30 in 10.0 mi North 6.9 mph - N/A   Clear
3:55 AM 34.0 °F 26.6 °F 22.1 °F 62% 30.30 in 10.0 mi North 9.2 mph - N/A   Clear
4:15 AM 34.7 °F 25.9 °F 21.6 °F 59% 30.30 in 10.0 mi North 12.7 mph - N/A   Clear
4:35 AM 34.7 °F 25.5 °F 21.6 °F 59% 30.30 in 10.0 mi North 13.8 mph - N/A   Clear
4:55 AM 34.0 °F 25.5 °F 21.2 °F 60% 30.30 in 10.0 mi North 11.5 mph - N/A   Clear
5:15 AM 32.9 °F 28.5 °F 21.2 °F 62% 30.34 in 10.0 mi South 4.6 mph - N/A   Clear
5:35 AM 32.0 °F 26.4 °F 20.5 °F 63% 30.33 in 10.0 mi North 5.8 mph - N/A   Clear
5:55 AM 32.0 °F - 19.9 °F 61% 30.34 in 10.0 mi Calm Calm - N/A   Clear
6:15 AM 31.5 °F - 20.1 °F 63% 30.34 in 10.0 mi Calm Calm - N/A   Clear
6:35 AM 30.7 °F - 19.4 °F 63% 30.35 in 10.0 mi Calm Calm - N/A   Clear
6:55 AM 29.5 °F - 21.4 °F 72% 30.36 in 10.0 mi Calm Calm - N/A   Clear
7:15 AM 28.4 °F 23.3 °F 22.1 °F 77% 30.36 in 10.0 mi West 4.6 mph - N/A   Clear
7:35 AM 29.1 °F 25.4 °F 21.2 °F 72% 30.36 in 10.0 mi West 3.5 mph - N/A   Clear
7:55 AM 27.5 °F 22.2 °F 21.2 °F 77% 30.37 in 10.0 mi WSW 4.6 mph - N/A   Clear
8:15 AM 28.2 °F 24.4 °F 21.9 °F 77% 30.37 in 10.0 mi WNW 3.5 mph - N/A   Clear
8:35 AM 30.9 °F 26.2 °F 22.8 °F 72% 30.38 in 10.0 mi West 4.6 mph - N/A   Clear
8:55 AM 32.0 °F 27.5 °F 22.8 °F 69% 30.39 in 10.0 mi WNW 4.6 mph - N/A   Clear
9:15 AM 32.7 °F 29.6 °F 23.0 °F 67% 30.39 in 10.0 mi WNW 3.5 mph - N/A   Clear
9:35 AM 35.2 °F 31.2 °F 21.4 °F 57% 30.39 in 10.0 mi NW 4.6 mph - N/A   Clear
9:55 AM 36.9 °F 30.7 °F 20.8 °F 52% 30.39 in 10.0 mi NW 8.1 mph - N/A   Clear
10:15 AM 38.7 °F 32.4 °F 20.7 °F 48% 30.40 in 10.0 mi NW 9.2 mph - N/A   Scattered Clouds
10:35 AM 39.0 °F 32.3 °F 19.6 °F 46% 30.40 in 10.0 mi North 10.4 mph - N/A   Clear
10:55 AM 39.4 °F 33.8 °F 20.3 °F 46% 30.40 in 10.0 mi NNW 8.1 mph 16.1 mph N/A   Clear
11:15 AM 41.0 °F 35.2 °F 19.6 °F 42% 30.40 in 10.0 mi North 9.2 mph 18.4 mph N/A   Clear
11:35 AM 40.5 °F 33.6 °F 19.6 °F 43% 30.39 in 10.0 mi NNW 11.5 mph 16.1 mph N/A   Clear
11:55 AM 40.1 °F 33.6 °F 19.0 °F 43% 30.39 in 10.0 mi NNW 10.4 mph - N/A   Clear
12:15 PM 39.6 °F 33.5 °F 19.2 °F 44% 30.39 in 10.0 mi NNW 9.2 mph - N/A   Mostly Cloudy
12:35 PM 40.3 °F 33.9 °F 19.0 °F 43% 30.38 in 10.0 mi North 10.4 mph - N/A   Overcast
12:55 PM 41.5 °F 36.4 °F 19.0 °F 41% 30.38 in 10.0 mi NNW 8.1 mph 16.1 mph N/A   Overcast
1:15 PM 42.4 °F 36.5 °F 18.1 °F 38% 30.37 in 10.0 mi NW 10.4 mph 17.3 mph N/A   Overcast
1:35 PM 42.8 °F 37.5 °F 17.1 °F 36% 30.37 in 10.0 mi NNW 9.2 mph 18.4 mph N/A   Overcast
1:55 PM 42.8 °F 36.6 °F 17.6 °F 36% 30.35 in 10.0 mi NNW 11.5 mph 16.1 mph N/A   Overcast
2:15 PM 43.7 °F 37.3 °F 17.6 °F 35% 30.35 in 10.0 mi North 12.7 mph 17.3 mph N/A   Overcast
2:35 PM 43.7 °F 38.6 °F 17.1 °F 34% 30.34 in 10.0 mi NNW 9.2 mph 17.3 mph N/A   Overcast
2:55 PM 43.7 °F 38.6 °F 17.4 °F 35% 30.32 in 10.0 mi NNW 9.2 mph - N/A   Overcast
3:15 PM 44.1 °F 39.0 °F 17.2 °F 34% 30.32 in 10.0 mi NNW 9.2 mph - N/A   Overcast
3:35 PM 44.8 °F 39.4 °F 17.1 °F 33% 30.32 in 10.0 mi North 10.4 mph - N/A   Overcast
3:55 PM 44.2 °F 38.4 °F 16.7 °F 33% 30.32 in 10.0 mi NNW 11.5 mph - N/A   Overcast
4:15 PM 45.0 °F 40.1 °F 17.6 °F 33% 30.32 in 10.0 mi NNW 9.2 mph - N/A   Overcast
4:35 PM 44.6 °F 40.7 °F 17.2 °F 33% 30.33 in 10.0 mi NW 6.9 mph - N/A   Overcast
4:55 PM 44.2 °F 39.7 °F 16.7 °F 33% 30.32 in 10.0 mi NW 8.1 mph - N/A   Overcast
5:15 PM 44.6 °F 39.7 °F 16.5 °F 32% 30.32 in 10.0 mi NNW 9.2 mph - N/A   Overcast
5:35 PM 44.1 °F 39.5 °F 16.0 °F 32% 30.32 in 10.0 mi NW 8.1 mph - N/A   Overcast
6:15 PM 43.9 °F 39.3 °F 15.8 °F 32% 30.32 in 10.0 mi NW 8.1 mph - N/A   Overcast
6:35 PM 43.0 °F 39.5 °F 15.8 °F 33% 30.32 in 10.0 mi NW 5.8 mph - N/A   Scattered Clouds
6:55 PM 41.9 °F 39.0 °F 15.6 °F 35% 30.32 in 10.0 mi NW 4.6 mph - N/A   Clear
7:15 PM 39.7 °F 37.6 °F 16.3 °F 39% 30.32 in 10.0 mi WNW 3.5 mph - N/A   Scattered Clouds
7:35 PM 37.0 °F 33.3 °F 17.4 °F 45% 30.32 in 10.0 mi WNW 4.6 mph - N/A   Scattered Clouds
7:55 PM 34.7 °F 29.6 °F 17.2 °F 49% 30.32 in 10.0 mi West 5.8 mph - N/A   Clear
8:15 PM 33.8 °F 28.6 °F 17.6 °F 52% 30.32 in 10.0 mi West 5.8 mph - N/A   Clear
8:35 PM 32.0 °F 26.4 °F 18.0 °F 56% 30.32 in 10.0 mi West 5.8 mph - N/A   Clear
8:55 PM 31.1 °F 25.4 °F 17.6 °F 57% 30.32 in 10.0 mi West 5.8 mph - N/A   Clear
9:15 PM 30.4 °F 24.5 °F 18.0 °F 60% 30.32 in 10.0 mi West 5.8 mph - N/A   Clear
9:35 PM 30.7 °F 24.1 °F 18.1 °F 60% 30.32 in 10.0 mi West 6.9 mph - N/A   Clear
9:55 PM 31.5 °F 25.8 °F 18.3 °F 58% 30.32 in 10.0 mi West 5.8 mph - N/A   Clear
10:15 PM 32.0 °F 26.4 °F 21.9 °F 66% 30.32 in 10.0 mi West 5.8 mph - N/A   Clear
10:35 PM 32.2 °F 26.7 °F 24.1 °F 72% 30.32 in 10.0 mi West 5.8 mph - N/A   Clear
10:55 PM 31.8 °F 26.2 °F 25.2 °F 76% 30.32 in 10.0 mi West 5.8 mph - N/A   Clear
11:15 PM 32.0 °F 27.5 °F 26.4 °F 80% 30.32 in 10.0 mi West 4.6 mph - N/A   Clear
11:35 PM 29.7 °F 24.7 °F 25.3 °F 84% 30.32 in 10.0 mi West 4.6 mph - N/A   Clear
11:55 PM 29.7 °F 24.7 °F 25.9 °F 86% 30.31 in 10.0 mi West 4.6 mph - N/A   Clear